Time;durP1;ratioP1;P1;durP2;ratioP2;P2;SDS_P1;SDS_P2;PMS_P1;PMS_P2;Temp;Humidity;BMP_temperature;BMP_pressure;BME280_temperature;BME280_humidity;BME280_pressure;Samples;Min_cycle;Max_cycle;Signal;HPM_P1;HPM_P2
2023/05/27 00:00:08;;;;;;;3.35;1.33;;;15.50;55.00;;;;;;5079229;28;20516;-82
2023/05/27 00:02:34;;;;;;;4.20;1.40;;;15.40;55.60;;;;;;5018624;28;20441;-82
2023/05/27 00:05:00;;;;;;;4.30;1.40;;;15.30;55.30;;;;;;5067362;28;20374;-81
2023/05/27 00:07:26;;;;;;;4.10;1.30;;;15.30;55.30;;;;;;5014247;28;20588;-82
2023/05/27 00:09:52;;;;;;;5.18;1.38;;;15.30;55.40;;;;;;5028128;28;20303;-79
2023/05/27 00:12:18;;;;;;;2.30;1.03;;;15.20;55.40;;;;;;5053000;28;20362;-82
2023/05/27 00:14:44;;;;;;;3.97;1.30;;;15.20;55.50;;;;;;5085163;27;20024;-81
2023/05/27 00:17:13;;;;;;;4.95;1.40;;;15.20;55.80;;;;;;5026068;28;20066;-82
2023/05/27 00:19:40;;;;;;;3.93;1.30;;;15.10;55.80;;;;;;5049109;28;20103;-84
2023/05/27 00:22:06;;;;;;;3.40;1.30;;;15.10;55.80;;;;;;5058344;28;20035;-81
2023/05/27 00:24:36;;;;;;;3.63;1.38;;;15.00;55.90;;;;;;5072933;28;20317;-81
2023/05/27 00:27:02;;;;;;;5.00;1.45;;;15.00;56.30;;;;;;5046987;28;20115;-83
2023/05/27 00:29:28;;;;;;;4.40;1.50;;;14.90;56.20;;;;;;5053303;28;20440;-81
2023/05/27 00:31:54;;;;;;;5.70;1.20;;;14.90;56.30;;;;;;5056316;28;20505;-82
2023/05/27 00:34:20;;;;;;;3.13;1.17;;;14.80;56.20;;;;;;5022860;28;20773;-81
2023/05/27 00:36:45;;;;;;;3.27;1.27;;;14.80;56.30;;;;;;5051410;28;20029;-82
2023/05/27 00:39:11;;;;;;;4.13;1.25;;;14.70;56.50;;;;;;5032972;28;20032;-82
2023/05/27 00:41:38;;;;;;;3.95;1.40;;;14.70;56.60;;;;;;5047598;28;20021;-84
2023/05/27 00:44:04;;;;;;;4.53;1.40;;;14.60;56.90;;;;;;5052650;28;20029;-81
2023/05/27 00:46:29;;;;;;;4.13;1.30;;;14.60;56.90;;;;;;5060955;28;20039;-81
2023/05/27 00:48:55;;;;;;;3.63;1.40;;;14.50;57.00;;;;;;5019143;28;20040;-82
2023/05/27 00:51:21;;;;;;;4.18;1.30;;;14.50;57.00;;;;;;5064331;28;20140;-82
2023/05/27 00:53:47;;;;;;;3.10;1.20;;;14.50;57.30;;;;;;5051129;28;20019;-81
2023/05/27 00:56:15;;;;;;;4.68;1.40;;;14.40;57.30;;;;;;5036229;28;20552;-81
2023/05/27 00:58:42;;;;;;;3.57;1.30;;;14.40;57.50;;;;;;5051998;28;20021;-80
2023/05/27 01:01:08;;;;;;;3.97;1.48;;;14.40;57.60;;;;;;5050929;28;20040;-81
2023/05/27 01:03:35;;;;;;;4.50;1.42;;;14.30;57.50;;;;;;5025166;28;20044;-81
2023/05/27 01:06:21;;;;;;;3.05;1.30;;;14.30;57.70;;;;;;5067297;28;20028;-82
2023/05/27 01:09:06;;;;;;;2.92;1.20;;;14.30;58.40;;;;;;5049431;28;20031;-81
2023/05/27 01:11:57;;;;;;;5.10;1.53;;;14.20;59.50;;;;;;5073577;27;21317;-80
2023/05/27 01:14:25;;;;;;;4.15;1.15;;;14.20;58.30;;;;;;5037432;28;20130;-80
2023/05/27 01:16:56;;;;;;;3.70;1.40;;;14.10;57.90;;;;;;5052135;28;20087;-82
2023/05/27 01:19:33;;;;;;;2.97;1.17;;;14.10;58.00;;;;;;5012209;28;20046;-82
2023/05/27 01:22:01;;;;;;;4.28;1.25;;;14.10;59.00;;;;;;5052722;28;20033;-81
2023/05/27 01:24:27;;;;;;;4.63;1.27;;;14.00;58.20;;;;;;5064467;28;20090;-81
2023/05/27 01:26:55;;;;;;;3.72;1.30;;;14.00;58.10;;;;;;5036400;28;20028;-80
2023/05/27 01:29:21;;;;;;;3.72;1.35;;;13.90;58.20;;;;;;5061634;28;20025;-81
2023/05/27 01:31:58;;;;;;;5.00;1.60;;;13.90;58.30;;;;;;5054537;28;20158;-81
2023/05/27 01:34:33;;;;;;;3.05;1.10;;;13.80;58.80;;;;;;5024992;28;20036;-81
2023/05/27 01:37:04;;;;;;;4.13;1.20;;;13.80;58.90;;;;;;5048259;28;20107;-82
2023/05/27 01:39:32;;;;;;;4.18;1.42;;;13.80;58.90;;;;;;5023571;28;20045;-81
2023/05/27 01:42:01;;;;;;;3.08;1.30;;;13.70;58.70;;;;;;5034723;28;20024;-80
2023/05/27 01:44:30;;;;;;;3.75;1.60;;;13.70;58.80;;;;;;5045795;28;20254;-81
2023/05/27 01:47:00;;;;;;;4.47;1.50;;;13.70;59.00;;;;;;5049054;28;20136;-81
2023/05/27 01:49:27;;;;;;;3.60;1.40;;;13.60;59.40;;;;;;5040749;28;20153;-81
2023/05/27 01:51:52;;;;;;;5.13;1.30;;;13.60;58.90;;;;;;5056931;28;20040;-81
2023/05/27 01:54:18;;;;;;;3.80;1.30;;;13.50;59.00;;;;;;5066363;28;20029;-81
2023/05/27 01:56:44;;;;;;;4.75;1.50;;;13.50;59.20;;;;;;5063459;28;20411;-80
2023/05/27 01:59:10;;;;;;;5.33;1.40;;;13.50;59.40;;;;;;5035822;28;20171;-81
2023/05/27 02:01:36;;;;;;;3.58;1.27;;;13.40;59.40;;;;;;5048828;28;20351;-81
2023/05/27 02:04:03;;;;;;;3.22;1.30;;;13.40;59.50;;;;;;5065744;28;20405;-81
2023/05/27 02:06:30;;;;;;;3.85;1.23;;;13.40;59.60;;;;;;5024953;28;20652;-80
2023/05/27 02:08:56;;;;;;;3.00;1.20;;;13.30;59.60;;;;;;5063866;28;20234;-81
2023/05/27 02:11:21;;;;;;;3.88;1.30;;;13.30;59.70;;;;;;5031578;28;20021;-81
2023/05/27 02:13:47;;;;;;;3.33;1.37;;;13.30;59.90;;;;;;5035460;28;20397;-81
2023/05/27 02:16:14;;;;;;;3.58;1.40;;;13.20;60.00;;;;;;5032463;28;20691;-81
2023/05/27 02:18:40;;;;;;;3.33;1.20;;;13.20;60.10;;;;;;5063441;28;20040;-81
2023/05/27 02:21:07;;;;;;;3.67;1.42;;;13.20;60.00;;;;;;5024172;28;20382;-81
2023/05/27 02:23:33;;;;;;;3.05;1.15;;;13.10;60.00;;;;;;5078190;28;20029;-81
2023/05/27 02:26:00;;;;;;;3.47;1.27;;;13.10;60.20;;;;;;5032219;28;20111;-81
2023/05/27 02:28:26;;;;;;;4.40;1.20;;;13.00;60.20;;;;;;5035018;28;20036;-81
2023/05/27 02:30:52;;;;;;;2.92;1.30;;;13.00;60.40;;;;;;5030650;28;20025;-81
2023/05/27 02:33:18;;;;;;;4.40;1.42;;;12.90;60.40;;;;;;5075690;27;20241;-82
2023/05/27 02:35:44;;;;;;;4.57;1.23;;;12.90;60.60;;;;;;5025063;28;20021;-81
2023/05/27 02:38:10;;;;;;;4.68;1.60;;;12.90;60.70;;;;;;5032503;28;20021;-80
2023/05/27 02:40:36;;;;;;;4.50;1.50;;;12.90;60.80;;;;;;5036934;28;20020;-81
2023/05/27 02:43:02;;;;;;;4.90;1.50;;;12.80;60.90;;;;;;5044088;28;20025;-80
2023/05/27 02:45:27;;;;;;;4.50;1.60;;;12.80;61.10;;;;;;5039649;28;20238;-81
2023/05/27 02:47:55;;;;;;;3.63;1.50;;;12.80;61.20;;;;;;5037008;28;20115;-80
2023/05/27 02:50:21;;;;;;;4.93;1.30;;;12.80;61.30;;;;;;5067637;28;20047;-81
2023/05/27 02:52:47;;;;;;;4.25;1.38;;;12.70;61.50;;;;;;5009894;28;20029;-80
2023/05/27 02:55:13;;;;;;;3.28;1.05;;;12.60;61.40;;;;;;5029306;28;20746;-80
2023/05/27 02:57:38;;;;;;;3.33;1.27;;;12.60;61.30;;;;;;5070512;28;20035;-81
2023/05/27 03:00:05;;;;;;;3.42;1.13;;;12.60;61.30;;;;;;5065261;28;20142;-81
2023/05/27 03:02:31;;;;;;;2.65;1.20;;;12.60;61.50;;;;;;5050241;28;20043;-80
2023/05/27 03:04:57;;;;;;;3.57;1.23;;;12.50;61.50;;;;;;5050296;28;20032;-81
2023/05/27 03:07:23;;;;;;;4.00;1.45;;;12.50;61.50;;;;;;5022646;28;20033;-81
2023/05/27 03:09:49;;;;;;;3.72;1.40;;;12.50;61.70;;;;;;5068241;28;21302;-80
2023/05/27 03:12:15;;;;;;;4.03;1.20;;;12.40;62.00;;;;;;5042498;28;20238;-81
2023/05/27 03:14:41;;;;;;;4.00;1.30;;;12.40;62.00;;;;;;5037076;28;20028;-81
2023/05/27 03:17:06;;;;;;;4.40;1.15;;;12.40;62.20;;;;;;5062879;28;20028;-81
2023/05/27 03:19:32;;;;;;;3.13;1.33;;;12.30;62.20;;;;;;5040764;28;20028;-81
2023/05/27 03:21:58;;;;;;;3.90;1.20;;;12.30;62.20;;;;;;5058440;28;20081;-80
2023/05/27 03:24:24;;;;;;;4.53;1.20;;;12.30;62.50;;;;;;5037568;28;20031;-82
2023/05/27 03:26:51;;;;;;;3.60;1.30;;;12.20;62.40;;;;;;5040070;28;20044;-80
2023/05/27 03:29:17;;;;;;;4.60;1.45;;;12.20;62.60;;;;;;5047360;28;20028;-81
2023/05/27 03:31:42;;;;;;;4.28;1.33;;;12.20;62.70;;;;;;5021410;28;20086;-81
2023/05/27 03:34:08;;;;;;;4.43;1.47;;;12.20;62.90;;;;;;5046593;28;21525;-80
2023/05/27 03:36:35;;;;;;;5.22;1.35;;;12.10;63.00;;;;;;5062851;28;20051;-80
2023/05/27 03:39:00;;;;;;;2.95;1.27;;;12.10;63.10;;;;;;5020054;28;20122;-81
2023/05/27 03:41:26;;;;;;;3.50;1.30;;;12.10;63.20;;;;;;5045849;28;20467;-81
2023/05/27 03:43:52;;;;;;;3.08;1.30;;;12.10;63.20;;;;;;5061121;28;20371;-80
2023/05/27 03:46:18;;;;;;;3.70;1.50;;;12.00;63.30;;;;;;5035102;28;20472;-80
2023/05/27 03:48:43;;;;;;;3.33;1.33;;;12.00;63.40;;;;;;5046132;28;20052;-80
2023/05/27 03:51:10;;;;;;;4.53;1.63;;;12.00;63.10;;;;;;5044473;28;20083;-81
2023/05/27 03:53:35;;;;;;;5.83;1.80;;;12.00;63.60;;;;;;5033003;28;20102;-81
2023/05/27 03:56:01;;;;;;;4.68;1.50;;;11.90;63.70;;;;;;5024292;28;20119;-81
2023/05/27 03:58:27;;;;;;;5.80;1.50;;;11.90;63.60;;;;;;5061952;28;20107;-81
2023/05/27 04:00:52;;;;;;;4.18;1.60;;;11.90;63.70;;;;;;5031507;28;20764;-81
2023/05/27 04:03:18;;;;;;;3.63;1.47;;;11.90;63.90;;;;;;5047732;28;20386;-81
2023/05/27 04:05:44;;;;;;;2.92;1.40;;;11.90;64.00;;;;;;5047467;28;20041;-81
2023/05/27 04:08:13;;;;;;;3.03;1.20;;;11.90;64.00;;;;;;5046997;28;20147;-81
2023/05/27 04:10:39;;;;;;;4.22;1.30;;;11.90;64.00;;;;;;5022633;28;20129;-81
2023/05/27 04:13:05;;;;;;;4.17;1.20;;;11.90;64.00;;;;;;5054174;28;20028;-81
2023/05/27 04:15:31;;;;;;;4.40;1.50;;;11.90;63.90;;;;;;5051348;28;20086;-81
2023/05/27 04:17:57;;;;;;;4.07;1.50;;;11.90;64.20;;;;;;5056379;28;20031;-81
2023/05/27 04:20:23;;;;;;;4.33;1.50;;;11.90;64.40;;;;;;5047164;28;20025;-80
2023/05/27 04:22:50;;;;;;;3.05;1.20;;;11.90;64.20;;;;;;5043254;28;20113;-81
2023/05/27 04:25:15;;;;;;;5.13;1.50;;;11.80;64.40;;;;;;5054296;28;20131;-81
2023/05/27 04:27:41;;;;;;;5.10;1.50;;;11.90;64.50;;;;;;5051522;28;20124;-81
2023/05/27 04:30:07;;;;;;;3.75;1.58;;;11.90;64.50;;;;;;5061753;28;20348;-81
2023/05/27 04:32:37;;;;;;;3.15;1.30;;;11.90;64.80;;;;;;5014918;28;20036;-80
2023/05/27 04:35:09;;;;;;;4.20;1.58;;;11.90;64.80;;;;;;5043030;28;20103;-81
2023/05/27 04:37:40;;;;;;;3.80;1.50;;;11.90;64.90;;;;;;5067133;28;20416;-80
2023/05/27 04:40:08;;;;;;;3.38;1.25;;;11.90;64.60;;;;;;5058843;28;20040;-81
2023/05/27 04:42:38;;;;;;;3.90;1.35;;;11.90;64.60;;;;;;5025070;28;20033;-81
2023/05/27 04:45:05;;;;;;;3.30;1.48;;;11.90;64.70;;;;;;5063769;28;21130;-79
2023/05/27 04:47:32;;;;;;;6.13;1.63;;;11.90;65.00;;;;;;5037190;28;20105;-81
2023/05/27 04:50:01;;;;;;;3.80;1.47;;;11.90;65.10;;;;;;5048828;28;20068;-80
2023/05/27 04:52:27;;;;;;;3.33;1.38;;;11.90;65.20;;;;;;5068400;28;20039;-82
2023/05/27 04:54:54;;;;;;;4.65;1.70;;;12.00;65.10;;;;;;5032805;28;20582;-82
2023/05/27 04:57:21;;;;;;;4.43;1.65;;;12.00;65.20;;;;;;5046049;28;20631;-81
2023/05/27 05:02:34;;;;;;;4.83;1.40;;;12.00;65.20;;;;;;5012617;28;20108;-81
2023/05/27 05:05:06;;;;;;;5.70;1.27;;;12.00;65.20;;;;;;5054715;28;20032;-80
2023/05/27 05:07:33;;;;;;;6.15;1.88;;;12.10;66.20;;;;;;5046139;28;20287;-80
2023/05/27 05:09:59;;;;;;;4.70;1.50;;;12.10;65.40;;;;;;5064618;28;20484;-80
2023/05/27 05:12:25;;;;;;;4.35;1.50;;;12.10;65.70;;;;;;5021428;28;21119;-79
2023/05/27 05:14:52;;;;;;;3.57;1.70;;;12.10;65.70;;;;;;5053603;28;20462;-82
2023/05/27 05:17:18;;;;;;;4.07;1.50;;;12.20;66.10;;;;;;5035091;28;20542;-80
2023/05/27 05:19:45;;;;;;;4.25;1.90;;;12.20;66.10;;;;;;5022643;28;20021;-82
2023/05/27 05:22:13;;;;;;;3.92;1.50;;;12.20;66.00;;;;;;5014195;28;20805;-80
2023/05/27 05:24:39;;;;;;;5.10;1.95;;;12.30;66.20;;;;;;5050140;28;20149;-81
2023/05/27 05:27:07;;;;;;;3.90;1.80;;;12.30;65.70;;;;;;5028070;28;20028;-79
2023/05/27 05:29:33;;;;;;;4.15;1.75;;;12.40;65.80;;;;;;5015152;28;20024;-80
2023/05/27 05:31:59;;;;;;;3.13;1.33;;;12.40;65.90;;;;;;5039534;28;20052;-82
2023/05/27 05:34:25;;;;;;;5.03;1.60;;;12.40;66.10;;;;;;5012979;28;20045;-80
2023/05/27 05:36:50;;;;;;;3.33;1.48;;;12.40;66.30;;;;;;5066626;28;20524;-79
2023/05/27 05:39:16;;;;;;;4.15;1.65;;;12.50;65.90;;;;;;5033461;28;20112;-81
2023/05/27 05:41:42;;;;;;;5.82;1.70;;;12.60;66.40;;;;;;5046173;28;20036;-81
2023/05/27 05:44:08;;;;;;;4.07;1.60;;;12.60;66.30;;;;;;5025612;28;20193;-80
2023/05/27 05:46:34;;;;;;;3.92;1.48;;;12.60;66.10;;;;;;5037891;28;20384;-79
2023/05/27 05:49:00;;;;;;;6.93;2.03;;;12.60;66.10;;;;;;5047658;28;20592;-81
2023/05/27 05:51:25;;;;;;;2.53;1.33;;;12.70;66.10;;;;;;5023300;28;20036;-81
2023/05/27 05:53:51;;;;;;;5.88;1.80;;;12.80;66.40;;;;;;5029308;28;20418;-82
2023/05/27 05:56:17;;;;;;;4.27;1.60;;;12.80;66.40;;;;;;5067399;28;20033;-80
2023/05/27 05:58:43;;;;;;;3.90;1.52;;;12.90;66.40;;;;;;5039760;28;20622;-81
2023/05/27 06:01:09;;;;;;;4.63;1.60;;;12.90;66.90;;;;;;5055928;28;20024;-82
2023/05/27 06:03:36;;;;;;;5.15;1.83;;;12.90;66.60;;;;;;5017726;28;20037;-81
2023/05/27 06:06:02;;;;;;;4.40;1.90;;;13.00;66.90;;;;;;5039875;28;20040;-81
2023/05/27 06:08:28;;;;;;;4.97;1.75;;;13.10;66.60;;;;;;5044746;28;20753;-79
2023/05/27 06:10:54;;;;;;;5.43;1.77;;;13.20;66.90;;;;;;5036410;28;20020;-81
2023/05/27 06:13:20;;;;;;;4.43;1.65;;;13.20;66.70;;;;;;5008718;28;20486;-81
2023/05/27 06:15:46;;;;;;;5.97;1.83;;;13.20;67.10;;;;;;5033372;28;20031;-80
2023/05/27 06:18:15;;;;;;;5.15;1.77;;;13.40;67.20;;;;;;5033352;28;20146;-81
2023/05/27 06:20:41;;;;;;;4.75;1.92;;;13.40;67.20;;;;;;5049839;28;20575;-81
2023/05/27 06:23:06;;;;;;;4.30;1.80;;;13.50;67.20;;;;;;5033867;28;20146;-82
2023/05/27 06:25:32;;;;;;;3.13;1.70;;;13.60;67.00;;;;;;5016977;28;20286;-79
2023/05/27 06:27:58;;;;;;;7.07;2.20;;;13.70;67.10;;;;;;5050398;27;20230;-80
2023/05/27 06:30:25;;;;;;;3.53;1.83;;;13.80;67.00;;;;;;5083000;28;20024;-81
2023/05/27 06:32:51;;;;;;;4.90;1.90;;;13.90;67.00;;;;;;5045590;28;20041;-80
2023/05/27 06:35:18;;;;;;;6.30;2.22;;;13.90;67.00;;;;;;5034120;28;20025;-82
2023/05/27 06:37:44;;;;;;;4.40;1.98;;;14.00;67.00;;;;;;5026956;28;20024;-82
2023/05/27 06:40:10;;;;;;;4.93;2.10;;;14.00;67.10;;;;;;5023527;28;20319;-79
2023/05/27 06:42:37;;;;;;;5.33;1.90;;;14.20;67.30;;;;;;5038955;28;20111;-82
2023/05/27 06:45:03;;;;;;;6.38;2.08;;;14.30;67.60;;;;;;5028561;28;20055;-81
2023/05/27 06:47:29;;;;;;;4.80;1.88;;;14.30;67.40;;;;;;5080367;27;20257;-82
2023/05/27 06:49:55;;;;;;;4.90;1.70;;;14.40;67.40;;;;;;5060397;28;20075;-80
2023/05/27 06:52:21;;;;;;;5.87;1.83;;;14.50;67.20;;;;;;5035081;28;20495;-82
2023/05/27 06:54:47;;;;;;;5.03;2.15;;;14.70;67.40;;;;;;5053485;28;20498;-81
2023/05/27 06:57:13;;;;;;;4.97;1.90;;;14.70;67.20;;;;;;5065340;28;20028;-80
2023/05/27 06:59:40;;;;;;;5.03;2.05;;;14.80;67.20;;;;;;5043162;28;20024;-81
2023/05/27 07:02:06;;;;;;;6.63;2.10;;;15.00;67.50;;;;;;5050972;28;20032;-81
2023/05/27 07:04:33;;;;;;;6.53;2.20;;;15.00;67.50;;;;;;5017843;28;20252;-82
2023/05/27 07:06:59;;;;;;;7.07;2.20;;;15.20;67.30;;;;;;5047952;28;21892;-81
2023/05/27 07:09:25;;;;;;;4.25;2.10;;;15.30;67.10;;;;;;5034597;28;20405;-80
2023/05/27 07:11:50;;;;;;;5.30;2.10;;;15.40;67.00;;;;;;5033975;28;20055;-81
2023/05/27 07:14:16;;;;;;;6.28;2.22;;;15.50;67.10;;;;;;5052770;28;20468;-82
2023/05/27 07:16:42;;;;;;;5.37;1.97;;;15.60;67.40;;;;;;5034688;28;21962;-81
2023/05/27 07:19:08;;;;;;;5.88;1.95;;;15.70;67.30;;;;;;5027297;28;20024;-82
2023/05/27 07:21:34;;;;;;;5.40;2.17;;;15.80;67.30;;;;;;5053984;28;20028;-80
2023/05/27 07:24:04;;;;;;;6.67;2.00;;;15.90;67.20;;;;;;5029352;28;20304;-82
2023/05/27 07:26:30;;;;;;;5.80;2.20;;;16.00;67.10;;;;;;5051531;28;20039;-81
2023/05/27 07:29:00;;;;;;;8.23;2.30;;;16.20;66.90;;;;;;5045955;28;20029;-84
2023/05/27 07:31:27;;;;;;;6.45;2.00;;;16.30;66.90;;;;;;5022446;28;20081;-81
2023/05/27 07:33:54;;;;;;;5.18;2.08;;;16.40;66.80;;;;;;5031716;28;20071;-81
2023/05/27 07:36:20;;;;;;;7.10;2.50;;;16.50;66.70;;;;;;5073362;28;20632;-81
2023/05/27 07:38:46;;;;;;;6.15;2.15;;;16.60;66.70;;;;;;5078270;28;20058;-80
2023/05/27 07:41:13;;;;;;;5.05;2.38;;;16.70;67.00;;;;;;5046717;28;20032;-82
2023/05/27 07:43:39;;;;;;;6.75;2.15;;;16.90;67.20;;;;;;5045940;28;20043;-81
2023/05/27 07:46:05;;;;;;;4.93;2.00;;;17.00;67.20;;;;;;5034190;28;20024;-81
2023/05/27 07:48:31;;;;;;;5.68;2.17;;;17.20;67.60;;;;;;5044122;28;20048;-81
2023/05/27 07:50:57;;;;;;;5.47;2.10;;;17.50;67.80;;;;;;5065369;28;20141;-81
2023/05/27 07:53:23;;;;;;;5.18;2.25;;;17.70;67.80;;;;;;5072531;28;20232;-82
2023/05/27 07:55:49;;;;;;;5.68;2.35;;;17.90;68.00;;;;;;5033069;28;20032;-80
2023/05/27 07:58:15;;;;;;;6.10;2.70;;;18.20;68.50;;;;;;5029044;28;20271;-83
2023/05/27 08:00:41;;;;;;;6.40;2.65;;;18.50;69.00;;;;;;5080193;28;20482;-80
2023/05/27 08:03:07;;;;;;;5.25;2.35;;;18.80;69.20;;;;;;5031272;28;20081;-81
2023/05/27 08:05:33;;;;;;;6.17;2.73;;;19.20;69.30;;;;;;5050570;28;20055;-81
2023/05/27 08:07:59;;;;;;;5.88;2.63;;;19.60;69.10;;;;;;5067056;28;20094;-81
2023/05/27 08:10:26;;;;;;;6.07;2.40;;;20.10;69.00;;;;;;5029713;28;20500;-81
2023/05/27 08:12:52;;;;;;;4.40;2.42;;;20.50;68.40;;;;;;5013409;28;20496;-81
2023/05/27 08:15:18;;;;;;;6.17;2.53;;;20.90;67.80;;;;;;5030341;28;20252;-81
2023/05/27 08:17:44;;;;;;;5.82;2.38;;;21.30;66.70;;;;;;5002293;28;20462;-80
2023/05/27 08:20:10;;;;;;;6.35;2.67;;;21.60;65.90;;;;;;5045680;28;20414;-82
2023/05/27 08:22:36;;;;;;;4.70;2.20;;;21.90;65.60;;;;;;5025625;28;20406;-82
2023/05/27 08:25:03;;;;;;;5.57;2.33;;;22.20;65.40;;;;;;5017005;28;20597;-82
2023/05/27 08:27:53;;;;;;;6.90;2.67;;;22.40;65.20;;;;;;5050712;28;20505;-79
2023/05/27 08:30:19;;;;;;;6.22;2.72;;;22.80;63.10;;;;;;5047463;28;20111;-83
2023/05/27 08:32:46;;;;;;;5.93;2.25;;;23.10;64.00;;;;;;5030995;28;20079;-80
2023/05/27 08:35:12;;;;;;;4.93;2.38;;;23.30;63.10;;;;;;5069105;28;20509;-81
2023/05/27 08:37:38;;;;;;;6.70;2.47;;;23.60;62.90;;;;;;5034174;28;20017;-80
2023/05/27 08:40:09;;;;;;;5.22;2.10;;;23.80;63.00;;;;;;5056083;28;20020;-83
2023/05/27 08:42:36;;;;;;;4.95;2.00;;;24.10;62.30;;;;;;5081055;28;20033;-83
2023/05/27 08:45:03;;;;;;;5.43;2.40;;;24.50;62.80;;;;;;5049559;28;20086;-82
2023/05/27 08:47:32;;;;;;;5.90;2.22;;;24.80;62.30;;;;;;5063009;28;23139;-82
2023/05/27 08:49:58;;;;;;;4.27;2.17;;;25.10;61.50;;;;;;5021938;28;20881;-83
2023/05/27 08:52:27;;;;;;;5.45;2.20;;;25.40;60.40;;;;;;5060406;28;20116;-82
2023/05/27 08:54:56;;;;;;;4.68;2.33;;;25.50;58.90;;;;;;5047596;28;22432;-82
2023/05/27 08:57:24;;;;;;;6.00;2.35;;;25.70;58.80;;;;;;5054579;28;20025;-81
2023/05/27 08:59:51;;;;;;;6.07;2.90;;;25.80;58.70;;;;;;5028739;28;20242;-82
2023/05/27 09:02:18;;;;;;;5.50;2.70;;;26.00;57.90;;;;;;5052237;28;20091;-82
2023/05/27 09:04:46;;;;;;;6.28;2.55;;;26.10;57.60;;;;;;5035038;28;20033;-82
2023/05/27 09:07:12;;;;;;;4.75;2.13;;;26.30;57.50;;;;;;5078740;28;20431;-82
2023/05/27 09:09:39;;;;;;;5.28;2.17;;;26.50;57.90;;;;;;5033177;28;20037;-83
2023/05/27 09:12:08;;;;;;;5.35;2.25;;;26.70;57.20;;;;;;5041737;28;20183;-82
2023/05/27 09:14:37;;;;;;;5.30;2.37;;;27.00;56.90;;;;;;5048107;28;20024;-81
2023/05/27 09:17:08;;;;;;;4.80;2.05;;;27.30;56.90;;;;;;5032606;28;20074;-81
2023/05/27 09:19:34;;;;;;;4.43;2.17;;;27.50;55.90;;;;;;5037938;28;20031;-80
2023/05/27 09:22:01;;;;;;;5.90;2.50;;;27.70;55.70;;;;;;5036690;28;20284;-82
2023/05/27 09:24:27;;;;;;;4.53;2.08;;;27.90;55.20;;;;;;5067826;28;20036;-81
2023/05/27 09:26:56;;;;;;;4.83;2.40;;;28.10;54.60;;;;;;5019005;28;20047;-81
2023/05/27 09:29:25;;;;;;;6.38;2.50;;;28.30;53.60;;;;;;5039364;28;20084;-82
2023/05/27 09:31:58;;;;;;;4.38;2.10;;;28.50;53.00;;;;;;5030636;28;20045;-82
2023/05/27 09:34:23;;;;;;;4.22;2.30;;;28.60;52.80;;;;;;5055024;28;20131;-82
2023/05/27 09:36:50;;;;;;;4.70;2.40;;;28.80;53.50;;;;;;5032315;28;20035;-82
2023/05/27 09:39:22;;;;;;;5.72;2.70;;;29.00;52.80;;;;;;5035373;28;20143;-81
2023/05/27 09:41:55;;;;;;;5.40;2.33;;;29.10;51.70;;;;;;5040878;28;20032;-80
2023/05/27 09:44:30;;;;;;;4.65;2.53;;;29.30;50.90;;;;;;5022099;28;20321;-83
2023/05/27 09:46:57;;;;;;;4.40;2.20;;;29.40;50.60;;;;;;5028346;28;20047;-82
2023/05/27 09:49:27;;;;;;;4.70;2.23;;;29.50;51.10;;;;;;5021296;28;20226;-83
2023/05/27 09:51:54;;;;;;;3.92;2.10;;;29.60;50.50;;;;;;5001154;28;20090;-81
2023/05/27 09:54:21;;;;;;;5.93;2.22;;;29.70;50.70;;;;;;5036427;28;20110;-81
2023/05/27 09:56:49;;;;;;;4.82;2.30;;;29.80;50.50;;;;;;5041436;28;20086;-82
2023/05/27 09:59:15;;;;;;;5.15;2.28;;;30.00;50.00;;;;;;5027663;28;20059;-82
2023/05/27 10:01:44;;;;;;;4.23;1.83;;;30.10;50.10;;;;;;5032329;28;20482;-82
2023/05/27 10:04:11;;;;;;;4.22;2.20;;;30.30;49.90;;;;;;5046834;28;20051;-82
2023/05/27 10:06:39;;;;;;;4.45;2.35;;;30.50;49.40;;;;;;5011455;28;20106;-83
2023/05/27 10:09:05;;;;;;;5.65;2.30;;;30.70;49.00;;;;;;5023822;28;20543;-83
2023/05/27 10:11:35;;;;;;;4.25;2.13;;;30.90;48.90;;;;;;5028161;28;20035;-83
2023/05/27 10:14:02;;;;;;;6.37;2.10;;;31.00;48.20;;;;;;5015342;28;20029;-83
2023/05/27 10:16:28;;;;;;;5.43;2.45;;;31.10;48.30;;;;;;5017924;28;20894;-83
2023/05/27 10:18:55;;;;;;;4.15;2.30;;;31.20;47.70;;;;;;5029584;28;20028;-83
2023/05/27 10:21:27;;;;;;;5.47;2.63;;;31.30;47.40;;;;;;5039117;28;20233;-84
2023/05/27 10:23:56;;;;;;;3.40;2.10;;;31.40;47.20;;;;;;5029688;28;20766;-84
2023/05/27 10:26:42;;;;;;;5.78;2.30;;;31.50;46.60;;;;;;5045146;28;20029;-82
2023/05/27 10:29:13;;;;;;;5.90;2.50;;;31.70;46.30;;;;;;5042748;28;20569;-84
2023/05/27 10:31:52;;;;;;;5.47;2.20;;;31.80;46.20;;;;;;5034652;28;20056;-83
2023/05/27 10:34:18;;;;;;;4.95;2.30;;;31.90;45.00;;;;;;5027935;28;21944;-85
2023/05/27 10:36:45;;;;;;;4.63;2.13;;;32.00;45.90;;;;;;5049747;28;20051;-83
2023/05/27 10:39:16;;;;;;;5.75;2.70;;;32.20;45.80;;;;;;5027764;28;20559;-84
2023/05/27 10:41:54;;;;;;;4.63;2.30;;;32.30;44.80;;;;;;5064324;28;20052;-83
2023/05/27 10:44:46;;;;;;;4.90;2.30;;;32.30;43.50;;;;;;5016790;28;20161;-81
2023/05/27 10:47:13;;;;;;;4.95;2.28;;;32.40;43.90;;;;;;5030798;28;20055;-83
2023/05/27 10:49:40;;;;;;;5.13;2.03;;;32.40;43.90;;;;;;5040713;28;20028;-82
2023/05/27 10:52:12;;;;;;;5.43;2.40;;;32.40;43.50;;;;;;5045928;28;20552;-82
2023/05/27 10:54:39;;;;;;;4.43;2.17;;;32.40;42.70;;;;;;5039898;28;20434;-82
2023/05/27 10:57:06;;;;;;;5.53;2.58;;;32.30;43.00;;;;;;5042854;28;20681;-82
2023/05/27 10:59:58;;;;;;;6.10;2.50;;;32.30;42.80;;;;;;5035556;28;20624;-82
2023/05/27 11:02:24;;;;;;;7.30;2.73;;;32.30;42.40;;;;;;5026687;28;20055;-81
2023/05/27 11:04:50;;;;;;;5.35;2.40;;;32.30;42.70;;;;;;5051612;28;20032;-82
2023/05/27 11:07:20;;;;;;;4.90;2.10;;;32.30;42.50;;;;;;5036371;28;20639;-82
2023/05/27 11:09:52;;;;;;;4.57;2.20;;;32.30;41.90;;;;;;5043677;28;20482;-82
2023/05/27 11:12:19;;;;;;;7.53;2.33;;;32.30;41.10;;;;;;5048812;28;20112;-82
2023/05/27 11:14:50;;;;;;;4.00;2.20;;;32.30;41.70;;;;;;5041623;28;20518;-82
2023/05/27 11:17:17;;;;;;;5.90;2.25;;;32.30;41.20;;;;;;5035305;28;20493;-83
2023/05/27 11:19:45;;;;;;;5.50;2.10;;;32.40;41.50;;;;;;5051936;28;20527;-83
2023/05/27 11:22:12;;;;;;;5.53;2.30;;;32.50;41.50;;;;;;5037353;28;20537;-83
2023/05/27 11:24:38;;;;;;;4.28;2.05;;;32.50;41.40;;;;;;5032476;28;20024;-83
2023/05/27 11:27:12;;;;;;;5.23;2.03;;;32.50;41.30;;;;;;5049054;28;20033;-82
2023/05/27 11:29:38;;;;;;;4.75;2.15;;;32.70;40.20;;;;;;5040189;28;20404;-84
2023/05/27 11:32:07;;;;;;;4.25;2.00;;;32.80;41.00;;;;;;5039641;28;20436;-83
2023/05/27 11:34:35;;;;;;;4.85;2.28;;;33.00;40.00;;;;;;5053206;28;20059;-82
2023/05/27 11:37:05;;;;;;;4.53;2.25;;;33.10;40.40;;;;;;5036487;28;20036;-82
2023/05/27 11:39:31;;;;;;;5.00;2.30;;;33.30;40.20;;;;;;5074530;27;20547;-84
2023/05/27 11:41:57;;;;;;;4.30;1.98;;;33.40;40.60;;;;;;5045702;28;20027;-84
2023/05/27 11:44:25;;;;;;;3.28;1.90;;;33.60;40.30;;;;;;5036589;28;20147;-83
2023/05/27 11:46:57;;;;;;;4.38;1.95;;;33.70;39.20;;;;;;5039148;28;20017;-84
2023/05/27 11:49:23;;;;;;;3.72;1.85;;;33.80;39.30;;;;;;5052301;28;20104;-85
2023/05/27 11:51:49;;;;;;;5.33;2.40;;;33.90;39.10;;;;;;5053661;28;20119;-84
2023/05/27 11:54:30;;;;;;;5.30;2.35;;;34.00;38.80;;;;;;5030064;28;20697;-85
2023/05/27 11:57:00;;;;;;;4.60;2.15;;;34.20;37.20;;;;;;5061676;28;20036;-83
2023/05/27 11:59:26;;;;;;;5.78;2.50;;;34.20;38.10;;;;;;5068581;28;20034;-82
2023/05/27 12:01:55;;;;;;;4.70;2.33;;;34.30;38.00;;;;;;5037160;28;20028;-84
2023/05/27 12:04:21;;;;;;;3.45;2.03;;;34.30;37.90;;;;;;5063559;28;20239;-84
2023/05/27 12:06:47;;;;;;;5.22;2.40;;;34.30;37.40;;;;;;5020570;28;20253;-83
2023/05/27 12:09:14;;;;;;;4.15;2.00;;;34.40;36.60;;;;;;5053250;28;20108;-85
2023/05/27 12:11:41;;;;;;;8.27;2.20;;;34.30;37.00;;;;;;5017856;28;20024;-86
2023/05/27 12:14:06;;;;;;;3.92;1.88;;;34.30;37.10;;;;;;5050921;28;20052;-82
2023/05/27 12:16:32;;;;;;;4.43;2.25;;;34.40;36.80;;;;;;5041375;28;20695;-84
2023/05/27 12:18:58;;;;;;;5.93;2.07;;;34.40;36.40;;;;;;5036904;28;20028;-82
2023/05/27 12:21:25;;;;;;;4.65;2.15;;;34.40;36.20;;;;;;5043376;28;20715;-84
2023/05/27 12:23:50;;;;;;;4.10;2.10;;;34.40;36.10;;;;;;5052826;28;20032;-81
2023/05/27 12:26:17;;;;;;;4.33;2.13;;;34.40;35.80;;;;;;5060727;28;20036;-84
2023/05/27 12:28:43;;;;;;;5.20;1.90;;;34.40;35.70;;;;;;5049562;28;20294;-84
2023/05/27 12:31:09;;;;;;;5.93;2.10;;;34.40;35.70;;;;;;5072663;28;20027;-80
2023/05/27 12:33:35;;;;;;;4.90;2.20;;;34.40;35.80;;;;;;5058850;28;20024;-80
2023/05/27 12:36:02;;;;;;;4.83;2.17;;;34.40;35.20;;;;;;5061616;28;20800;-83
2023/05/27 12:38:27;;;;;;;5.50;2.08;;;34.40;34.60;;;;;;5046930;28;20034;-85
2023/05/27 12:40:55;;;;;;;4.80;2.20;;;34.30;34.90;;;;;;5054210;28;20024;-83
2023/05/27 12:43:21;;;;;;;3.73;1.87;;;34.30;34.90;;;;;;5054888;28;20047;-85
2023/05/27 12:45:47;;;;;;;4.57;2.00;;;34.20;34.90;;;;;;5042754;28;20024;-81
2023/05/27 12:48:13;;;;;;;4.20;2.10;;;34.20;35.00;;;;;;5040509;28;20658;-85
2023/05/27 12:50:39;;;;;;;5.60;2.35;;;34.30;35.00;;;;;;5059582;28;23498;-80